createdAt,value
2023-05-21T00:01:30.369Z,19.17
2023-05-21T00:04:00.100Z,19.05
2023-05-21T00:06:28.590Z,20.10
2023-05-21T00:08:56.923Z,20.25
2023-05-21T00:11:25.366Z,19.42
2023-05-21T00:13:53.574Z,19.85
2023-05-21T00:16:22.313Z,19.23
2023-05-21T00:18:54.635Z,19.13
2023-05-21T00:21:23.323Z,19.25
2023-05-21T00:23:51.531Z,20.50
2023-05-21T00:26:19.815Z,19.05
2023-05-21T00:28:48.000Z,21.67
2023-05-21T00:31:17.349Z,21.75
2023-05-21T00:33:45.649Z,21.15
2023-05-21T00:36:15.612Z,20.70
2023-05-21T00:38:45.906Z,21.40
2023-05-21T00:41:14.610Z,21.45
2023-05-21T00:43:44.644Z,22.17
2023-05-21T00:46:16.813Z,21.08
2023-05-21T00:48:46.490Z,21.90
2023-05-21T00:51:18.709Z,22.98
2023-05-21T00:53:47.934Z,21.52
2023-05-21T00:56:16.166Z,22.65
2023-05-21T00:58:44.500Z,22.05
2023-05-21T01:01:14.222Z,22.73
2023-05-21T01:03:43.414Z,24.08
2023-05-21T01:06:14.161Z,22.05
2023-05-21T01:08:44.274Z,22.83
2023-05-21T01:11:12.966Z,23.92
2023-05-21T01:13:43.351Z,23.33
2023-05-21T01:16:13.693Z,24.25
2023-05-21T01:18:43.817Z,22.50
2023-05-21T01:21:12.506Z,24.55
2023-05-21T01:23:42.250Z,23.48
2023-05-21T01:26:13.123Z,24.23
2023-05-21T01:28:42.265Z,22.90
2023-05-21T01:31:20.793Z,22.88
2023-05-21T01:33:51.365Z,24.35
2023-05-21T01:36:26.437Z,23.60
2023-05-21T01:39:02.194Z,23.02
2023-05-21T01:41:33.458Z,23.65
2023-05-21T01:44:03.456Z,24.95
2023-05-21T01:46:34.752Z,24.60
2023-05-21T01:49:04.054Z,23.73
2023-05-21T01:51:32.730Z,22.02
2023-05-21T01:54:02.871Z,20.63
2023-05-21T01:56:34.087Z,21.20
2023-05-21T01:59:02.378Z,18.98
2023-05-21T02:01:30.795Z,16.80
2023-05-21T02:03:59.537Z,14.63
2023-05-21T02:06:27.928Z,15.48
2023-05-21T02:08:56.723Z,15.18
2023-05-21T02:11:26.479Z,15.05
2023-05-21T02:13:54.748Z,15.23
2023-05-21T02:16:22.948Z,17.00
2023-05-21T02:18:53.871Z,20.40
2023-05-21T02:21:22.307Z,22.50
2023-05-21T02:23:50.647Z,20.92
2023-05-21T02:26:19.002Z,22.95
2023-05-21T02:28:48.761Z,23.38
2023-05-21T02:31:17.120Z,24.55
2023-05-21T02:33:45.324Z,24.83
2023-05-21T02:36:15.529Z,24.17
2023-05-21T02:38:43.979Z,24.40
2023-05-21T02:41:12.547Z,23.13
2023-05-21T02:43:41.125Z,24.45
2023-05-21T02:46:10.741Z,24.05
2023-05-21T02:48:38.988Z,24.63
2023-05-21T02:51:07.351Z,23.98
2023-05-21T02:53:35.912Z,24.45
2023-05-21T02:56:04.226Z,24.42
2023-05-21T02:58:33.425Z,23.20
2023-05-21T03:01:01.736Z,23.58
2023-05-21T03:03:32.601Z,22.42
2023-05-21T03:06:00.977Z,24.30
2023-05-21T03:08:29.126Z,23.73
2023-05-21T03:10:57.428Z,23.65
2023-05-21T03:13:25.738Z,23.90
2023-05-21T03:15:56.574Z,24.85
2023-05-21T03:18:25.342Z,23.63
2023-05-21T03:20:54.932Z,22.92
2023-05-21T03:23:23.279Z,23.85
2023-05-21T03:25:52.131Z,22.95
2023-05-21T03:28:20.457Z,24.27
2023-05-21T03:30:49.785Z,22.15
2023-05-21T03:33:18.600Z,21.83
2023-05-21T03:35:47.096Z,21.05
2023-05-21T03:38:16.734Z,19.27
2023-05-21T03:40:45.107Z,18.17
2023-05-21T03:43:13.275Z,18.85
2023-05-21T03:45:44.211Z,18.88
2023-05-21T03:48:12.780Z,18.05
2023-05-21T03:50:41.629Z,19.65
2023-05-21T03:53:10.964Z,18.20
2023-05-21T03:55:40.659Z,18.65
2023-05-21T03:58:09.698Z,19.70
2023-05-21T04:00:38.302Z,19.73
2023-05-21T04:03:07.346Z,19.98
2023-05-21T04:05:35.984Z,18.35
2023-05-21T04:08:04.533Z,17.95
2023-05-21T04:10:32.782Z,18.17
2023-05-21T04:13:02.499Z,19.23
2023-05-21T04:15:30.690Z,19.73
2023-05-21T04:17:59.020Z,18.23
2023-05-21T04:20:27.170Z,19.02
2023-05-21T04:22:55.483Z,19.98
2023-05-21T04:25:23.969Z,19.75
2023-05-21T04:27:52.725Z,19.42
2023-05-21T04:30:24.228Z,20.17
2023-05-21T04:32:52.894Z,19.60
2023-05-21T04:35:21.216Z,22.05
2023-05-21T04:37:49.393Z,18.23
2023-05-21T04:40:18.463Z,21.02
2023-05-21T04:42:48.528Z,19.15
2023-05-21T04:45:17.864Z,19.88
2023-05-21T04:47:48.033Z,19.10
2023-05-21T04:50:16.344Z,19.73
2023-05-21T04:52:45.713Z,18.67
2023-05-21T04:55:14.006Z,20.00
2023-05-21T04:57:42.223Z,18.45
2023-05-21T05:00:11.764Z,16.40
2023-05-21T05:02:40.201Z,16.10
2023-05-21T05:05:10.733Z,15.82
2023-05-21T05:07:38.992Z,15.18
2023-05-21T05:10:08.247Z,16.33
2023-05-21T05:12:36.518Z,15.80
2023-05-21T05:15:05.233Z,15.98
2023-05-21T05:17:34.895Z,16.88
2023-05-21T05:20:03.862Z,15.35
2023-05-21T05:22:33.576Z,13.80
2023-05-21T05:25:01.799Z,13.23
2023-05-21T05:27:30.030Z,12.82
2023-05-21T05:29:58.358Z,13.23
2023-05-21T05:32:26.600Z,12.32
2023-05-21T05:34:54.937Z,11.23
2023-05-21T05:37:23.277Z,10.20
2023-05-21T05:39:53.192Z,10.25
2023-05-21T05:42:21.415Z,9.15
2023-05-21T05:44:49.698Z,9.00
2023-05-21T05:47:18.284Z,8.80
2023-05-21T05:49:46.486Z,8.60
2023-05-21T05:52:14.897Z,8.32
2023-05-21T05:54:43.262Z,8.10
2023-05-21T05:57:13.066Z,7.32
2023-05-21T05:59:41.349Z,6.47
2023-05-21T06:02:09.690Z,6.28
2023-05-21T06:04:37.933Z,6.53
2023-05-21T06:07:06.617Z,6.57
2023-05-21T06:09:34.928Z,7.38
2023-05-21T06:12:03.269Z,6.20
2023-05-21T06:14:32.962Z,6.35
2023-05-21T06:17:01.252Z,6.53
2023-05-21T06:19:29.863Z,6.78
2023-05-21T06:21:58.291Z,8.68
2023-05-21T06:24:26.929Z,12.13
2023-05-21T06:26:55.873Z,11.65
2023-05-21T06:29:24.135Z,15.55
2023-05-21T06:31:53.772Z,15.95
2023-05-21T06:34:22.029Z,20.88
2023-05-21T06:36:50.252Z,19.92
2023-05-21T06:39:18.417Z,19.80
2023-05-21T06:41:46.786Z,18.80
2023-05-21T06:44:16.401Z,18.45
2023-05-21T06:46:44.593Z,19.90
2023-05-21T06:49:15.225Z,18.42
2023-05-21T06:51:43.523Z,18.02
2023-05-21T06:54:11.734Z,19.23
2023-05-21T06:56:39.951Z,17.77
2023-05-21T06:59:08.221Z,19.70
2023-05-21T07:01:36.562Z,19.00
2023-05-21T07:04:04.915Z,18.35
2023-05-21T07:06:35.149Z,18.83
2023-05-21T07:09:03.618Z,16.75
2023-05-21T07:11:32.471Z,15.23
2023-05-21T07:14:01.778Z,15.85
2023-05-21T07:16:30.173Z,15.77
2023-05-21T07:18:58.389Z,16.52
2023-05-21T07:21:26.663Z,14.60
2023-05-21T07:23:56.853Z,13.82
2023-05-21T07:26:26.386Z,14.55
2023-05-21T07:28:54.672Z,13.52
2023-05-21T07:31:23.089Z,13.52
2023-05-21T07:33:51.341Z,13.93
2023-05-21T07:36:19.669Z,22.05
2023-05-21T07:38:47.856Z,18.20
2023-05-21T07:41:18.833Z,16.17
2023-05-21T07:43:47.313Z,15.13
2023-05-21T07:46:15.630Z,16.35
2023-05-21T07:48:44.165Z,14.73
2023-05-21T07:51:12.821Z,15.07
2023-05-21T07:53:41.239Z,14.95
2023-05-21T07:56:09.733Z,14.63
2023-05-21T07:58:39.562Z,13.95
2023-05-21T08:01:07.814Z,13.18
2023-05-21T08:03:36.140Z,13.88
2023-05-21T08:06:04.967Z,16.77
2023-05-21T08:08:33.280Z,15.10
2023-05-21T08:11:01.993Z,14.75
2023-05-21T08:13:30.255Z,14.23
2023-05-21T08:16:00.036Z,15.55
2023-05-21T08:18:28.675Z,15.98
2023-05-21T08:20:56.893Z,18.38
2023-05-21T08:23:25.138Z,19.67
2023-05-21T08:25:53.785Z,18.55
2023-05-21T08:28:23.349Z,19.67
2023-05-21T08:30:51.609Z,20.33
2023-05-21T08:33:21.647Z,20.77
2023-05-21T08:35:50.009Z,21.60
2023-05-21T08:38:18.257Z,20.55
2023-05-21T08:40:47.915Z,20.80
2023-05-21T08:43:17.409Z,20.10
2023-05-21T08:45:47.972Z,19.75
2023-05-21T08:48:17.922Z,19.93
2023-05-21T08:50:48.190Z,19.20
2023-05-21T08:53:27.357Z,18.05
2023-05-21T08:55:57.574Z,18.52
2023-05-21T08:58:26.160Z,15.65
2023-05-21T09:00:56.328Z,17.42
2023-05-21T09:03:25.521Z,20.05
2023-05-21T09:05:55.526Z,22.05
2023-05-21T09:08:31.308Z,21.40
2023-05-21T09:10:59.558Z,21.45
2023-05-21T09:13:28.786Z,18.40
2023-05-21T09:15:57.540Z,17.08
2023-05-21T09:18:27.614Z,14.25
2023-05-21T09:20:57.807Z,14.48
2023-05-21T09:23:26.087Z,13.57
2023-05-21T09:25:54.469Z,12.38
2023-05-21T09:28:23.371Z,11.43
2023-05-21T09:30:54.455Z,10.98
2023-05-21T09:33:27.020Z,12.98
2023-05-21T09:35:56.949Z,13.68
2023-05-21T09:38:26.031Z,15.75
2023-05-21T09:40:56.818Z,17.95
2023-05-21T09:43:25.328Z,18.02
2023-05-21T09:45:56.126Z,16.42
2023-05-21T09:48:43.297Z,16.55
2023-05-21T09:51:16.265Z,14.95
2023-05-21T09:53:46.098Z,9.48
2023-05-21T09:56:14.429Z,7.57
2023-05-21T09:58:42.813Z,7.00
2023-05-21T10:01:12.527Z,6.70
2023-05-21T10:03:41.702Z,7.75
2023-05-21T10:06:10.649Z,8.80
2023-05-21T10:08:46.266Z,9.13
2023-05-21T10:11:15.657Z,12.77
2023-05-21T10:13:50.396Z,13.88
2023-05-21T10:16:19.500Z,12.75
2023-05-21T10:18:49.753Z,14.57
2023-05-21T10:21:19.501Z,12.05
2023-05-21T10:23:50.078Z,12.13
2023-05-21T10:26:19.890Z,14.73
2023-05-21T10:28:48.201Z,13.63
2023-05-21T10:31:16.819Z,12.45
2023-05-21T10:33:45.150Z,13.68
2023-05-21T10:36:14.020Z,14.13
2023-05-21T10:38:43.707Z,15.20
2023-05-21T10:41:14.564Z,18.63
2023-05-21T10:43:51.904Z,15.90
2023-05-21T10:46:49.871Z,16.17
2023-05-21T10:49:39.863Z,14.15
2023-05-21T10:52:16.901Z,13.23
2023-05-21T10:55:17.867Z,13.70
2023-05-21T10:58:12.260Z,14.00
2023-05-21T11:00:40.992Z,11.30
2023-05-21T11:03:10.102Z,11.48
2023-05-21T11:05:42.362Z,10.63
2023-05-21T11:08:27.606Z,11.93
2023-05-21T11:10:58.338Z,10.38
2023-05-21T11:13:31.442Z,11.25
2023-05-21T11:16:09.386Z,11.77
2023-05-21T11:19:02.911Z,9.95
2023-05-21T11:21:35.125Z,9.80
2023-05-21T11:24:06.667Z,10.70
2023-05-21T11:27:07.152Z,11.70
2023-05-21T11:29:41.840Z,10.70
2023-05-21T11:32:10.820Z,12.50
2023-05-21T11:34:40.883Z,10.75
2023-05-21T11:37:30.421Z,9.95
2023-05-21T11:40:00.433Z,12.23
2023-05-21T11:42:34.125Z,11.77
2023-05-21T11:45:04.884Z,13.25
2023-05-21T11:47:34.049Z,12.88
2023-05-21T11:50:03.732Z,13.55
2023-05-21T11:52:33.283Z,12.45
2023-05-21T11:55:01.763Z,13.38
2023-05-21T11:57:32.065Z,12.98
2023-05-21T12:00:01.618Z,12.27
2023-05-21T12:02:33.188Z,11.38
2023-05-21T12:07:31.381Z,11.85
2023-05-21T12:10:00.206Z,10.30
2023-05-21T12:12:35.553Z,10.27
2023-05-21T12:15:15.063Z,10.10
2023-05-21T12:17:44.824Z,10.65
2023-05-21T12:20:17.251Z,12.57
2023-05-21T12:22:45.998Z,11.93
2023-05-21T12:25:14.171Z,12.65
2023-05-21T12:27:45.231Z,11.32
2023-05-21T12:30:13.908Z,11.25
2023-05-21T12:32:44.322Z,11.98
2023-05-21T12:35:24.273Z,10.77
2023-05-21T12:37:53.306Z,12.38
2023-05-21T12:40:22.479Z,13.13
2023-05-21T12:42:51.776Z,13.85
2023-05-21T12:45:22.811Z,13.75
2023-05-21T12:47:56.509Z,14.05
2023-05-21T12:50:26.483Z,12.88
2023-05-21T12:53:00.133Z,13.10
2023-05-21T12:55:28.696Z,13.13
2023-05-21T12:58:05.188Z,12.88
2023-05-21T13:00:33.893Z,13.85
2023-05-21T13:03:02.338Z,12.55
2023-05-21T13:05:32.563Z,11.75
2023-05-21T13:08:00.817Z,11.27
2023-05-21T13:10:29.225Z,11.82
2023-05-21T13:12:57.536Z,13.13
2023-05-21T13:15:25.737Z,13.57
2023-05-21T13:17:56.550Z,14.27
2023-05-21T13:20:27.793Z,14.02
2023-05-21T13:22:57.549Z,14.27
2023-05-21T13:25:29.139Z,13.85
2023-05-21T13:27:58.674Z,13.45
2023-05-21T13:30:27.062Z,11.77
2023-05-21T13:32:55.755Z,11.05
2023-05-21T13:35:25.265Z,10.65
2023-05-21T13:37:53.463Z,9.00
2023-05-21T13:40:23.998Z,8.45
2023-05-21T13:42:52.372Z,7.03
2023-05-21T13:45:21.817Z,7.63
2023-05-21T13:47:50.240Z,9.98
2023-05-21T13:50:18.658Z,8.65
2023-05-21T13:52:47.286Z,7.38
2023-05-21T13:55:16.165Z,8.93
2023-05-21T13:57:46.998Z,10.07
2023-05-21T14:00:16.328Z,8.88
2023-05-21T14:02:45.329Z,8.13
2023-05-21T14:05:13.913Z,8.02
2023-05-21T14:07:42.986Z,7.10
2023-05-21T14:10:11.942Z,6.63
2023-05-21T14:12:40.884Z,6.82
2023-05-21T14:15:12.099Z,7.32
2023-05-21T14:17:42.507Z,7.30
2023-05-21T14:20:12.130Z,6.10
2023-05-21T14:22:40.374Z,6.20
2023-05-21T14:25:09.034Z,6.03
2023-05-21T14:27:38.610Z,5.95
2023-05-21T14:30:08.008Z,5.85
2023-05-21T14:32:37.753Z,4.72
2023-05-21T14:35:06.959Z,4.75
2023-05-21T14:37:35.182Z,5.35
2023-05-21T14:40:05.473Z,4.78
2023-05-21T14:42:33.739Z,4.22
2023-05-21T14:45:17.566Z,5.57
2023-05-21T14:47:50.104Z,5.18
2023-05-21T14:50:20.314Z,6.85
2023-05-21T14:52:48.543Z,5.05
2023-05-21T14:55:18.615Z,5.03
2023-05-21T14:57:46.948Z,5.47
2023-05-21T15:00:15.699Z,4.63
2023-05-21T15:02:44.144Z,4.68
2023-05-21T15:05:13.969Z,4.55
2023-05-21T15:07:42.271Z,4.45
2023-05-21T15:10:11.053Z,4.20
2023-05-21T15:12:39.513Z,4.07
2023-05-21T15:15:08.495Z,4.03
2023-05-21T15:17:37.308Z,5.30
2023-05-21T15:20:06.448Z,4.53
2023-05-21T15:22:36.339Z,4.03
2023-05-21T15:25:05.843Z,4.57
2023-05-21T15:27:34.279Z,4.05
2023-05-21T15:30:03.348Z,4.00
2023-05-21T15:32:32.159Z,4.18
2023-05-21T15:35:00.637Z,4.22
2023-05-21T15:37:32.244Z,3.90
2023-05-21T15:40:02.181Z,3.60
2023-05-21T15:42:31.956Z,4.68
2023-05-21T15:45:00.313Z,4.63
2023-05-21T15:47:28.853Z,4.75
2023-05-21T15:49:58.870Z,4.43
2023-05-21T15:52:27.320Z,5.03
2023-05-21T15:54:55.790Z,4.10
2023-05-21T15:57:25.463Z,4.82
2023-05-21T15:59:53.576Z,4.38
2023-05-21T16:02:21.998Z,4.75
2023-05-21T16:04:52.184Z,3.50
2023-05-21T16:07:21.105Z,4.35
2023-05-21T16:09:49.302Z,3.45
2023-05-21T16:12:17.687Z,4.25
2023-05-21T16:14:50.042Z,4.65
2023-05-21T16:17:18.555Z,4.57
2023-05-21T16:19:47.610Z,3.42
2023-05-21T16:22:16.190Z,4.20
2023-05-21T16:24:44.312Z,3.28
2023-05-21T16:27:12.540Z,3.97
2023-05-21T16:29:41.100Z,4.18
2023-05-21T16:32:13.063Z,4.07
2023-05-21T16:34:41.552Z,4.47
2023-05-21T16:37:09.992Z,4.43
2023-05-21T16:39:38.615Z,3.55
2023-05-21T16:42:07.314Z,3.67
2023-05-21T16:44:37.119Z,3.03
2023-05-21T16:47:05.927Z,3.20
2023-05-21T16:49:35.538Z,3.28
2023-05-21T16:52:04.080Z,3.70
2023-05-21T16:54:32.303Z,3.58
2023-05-21T16:57:00.702Z,3.13
2023-05-21T16:59:29.551Z,3.22
2023-05-21T17:01:57.849Z,3.00
2023-05-21T17:04:26.181Z,4.32
2023-05-21T17:06:55.834Z,4.63
2023-05-21T17:09:24.163Z,4.65
2023-05-21T17:11:52.339Z,5.03
2023-05-21T17:14:33.206Z,5.07
2023-05-21T17:17:02.292Z,4.75
2023-05-21T17:19:30.877Z,3.85
2023-05-21T17:22:00.763Z,4.43
2023-05-21T17:24:29.012Z,3.88
2023-05-21T17:26:57.179Z,3.90
2023-05-21T17:29:25.399Z,4.07
2023-05-21T17:31:53.962Z,4.05
2023-05-21T17:34:24.658Z,3.70
2023-05-21T17:36:52.965Z,3.70
2023-05-21T17:39:22.777Z,3.72
2023-05-21T17:41:51.285Z,3.75
2023-05-21T17:44:20.790Z,3.30
2023-05-21T17:46:50.672Z,4.60
2023-05-21T17:49:19.447Z,3.20
2023-05-21T17:51:48.153Z,2.30
2023-05-21T17:54:16.596Z,3.00
2023-05-21T17:56:46.639Z,2.53
2023-05-21T17:59:16.073Z,2.53
2023-05-21T18:01:44.275Z,2.60
2023-05-21T18:04:13.408Z,2.58
2023-05-21T18:06:41.730Z,3.30
2023-05-21T18:09:10.679Z,2.45
2023-05-21T18:11:38.993Z,2.20
2023-05-21T18:14:08.570Z,2.60
2023-05-21T18:16:36.802Z,2.50
2023-05-21T18:19:06.832Z,2.95
2023-05-21T18:21:35.681Z,2.40
2023-05-21T18:24:04.243Z,2.65
2023-05-21T18:26:32.459Z,2.08
2023-05-21T18:29:01.234Z,2.25
2023-05-21T18:31:30.920Z,2.15
2023-05-21T18:33:59.382Z,3.30
2023-05-21T18:36:27.796Z,2.25
2023-05-21T18:38:56.031Z,3.42
2023-05-21T18:41:24.918Z,3.45
2023-05-21T18:43:53.254Z,3.15
2023-05-21T18:46:21.838Z,3.38
2023-05-21T18:48:51.654Z,2.53
2023-05-21T18:51:20.050Z,2.83
2023-05-21T18:53:49.152Z,2.50
2023-05-21T18:56:17.382Z,2.45
2023-05-21T18:58:46.027Z,2.30
2023-05-21T19:01:14.436Z,3.47
2023-05-21T19:03:42.796Z,2.95
2023-05-21T19:06:12.482Z,3.03
2023-05-21T19:08:41.450Z,2.20
2023-05-21T19:11:09.736Z,2.53
2023-05-21T19:13:38.237Z,3.15
2023-05-21T19:16:11.074Z,2.10
2023-05-21T19:18:42.819Z,3.03
2023-05-21T19:21:13.532Z,2.63
2023-05-21T19:23:51.770Z,2.92
2023-05-21T19:26:21.951Z,2.67
2023-05-21T19:28:53.452Z,2.97
2023-05-21T19:31:22.856Z,2.10
2023-05-21T19:33:51.346Z,2.00
2023-05-21T19:36:22.100Z,3.97
2023-05-21T19:38:51.118Z,3.78
2023-05-21T19:41:20.205Z,3.00
2023-05-21T19:43:48.421Z,2.55
2023-05-21T19:46:20.020Z,2.65
2023-05-21T19:48:49.071Z,5.60
2023-05-21T19:51:18.064Z,3.13
2023-05-21T19:53:47.778Z,4.40
2023-05-21T19:56:16.255Z,2.22
2023-05-21T19:58:47.266Z,2.53
2023-05-21T20:01:16.120Z,2.22
2023-05-21T20:03:45.653Z,2.92
2023-05-21T20:06:15.561Z,2.83
2023-05-21T20:08:43.848Z,3.17
2023-05-21T20:11:13.515Z,2.40
2023-05-21T20:13:42.554Z,2.33
2023-05-21T20:16:12.818Z,2.35
2023-05-21T20:18:41.861Z,2.45
2023-05-21T20:21:10.692Z,3.30
2023-05-21T20:23:38.902Z,2.88
2023-05-21T20:26:07.331Z,2.60
2023-05-21T20:28:37.511Z,1.90
2023-05-21T20:31:06.239Z,1.85
2023-05-21T20:33:43.475Z,2.20
2023-05-21T20:36:13.444Z,2.20
2023-05-21T20:38:42.231Z,2.40
2023-05-21T20:41:10.639Z,2.42
2023-05-21T20:43:40.465Z,3.25
2023-05-21T20:46:08.733Z,3.17
2023-05-21T20:48:37.937Z,3.30
2023-05-21T20:51:06.953Z,2.92
2023-05-21T20:53:35.342Z,3.53
2023-05-21T20:56:08.376Z,2.60
2023-05-21T20:58:36.637Z,2.35
2023-05-21T21:01:06.268Z,3.08
2023-05-21T21:03:35.181Z,2.75
2023-05-21T21:06:04.488Z,2.83
2023-05-21T21:08:34.783Z,3.08
2023-05-21T21:11:03.001Z,2.95
2023-05-21T21:13:31.267Z,2.80
2023-05-21T21:15:59.518Z,3.55
2023-05-21T21:18:29.198Z,3.15
2023-05-21T21:20:57.531Z,3.00
2023-05-21T21:23:26.341Z,3.78
2023-05-21T21:25:54.661Z,7.03
2023-05-21T21:28:22.904Z,3.67
2023-05-21T21:30:51.217Z,3.95
2023-05-21T21:33:19.471Z,3.63
2023-05-21T21:35:49.162Z,3.95
2023-05-21T21:38:17.481Z,2.78
2023-05-21T21:40:45.798Z,2.95
2023-05-21T21:43:14.142Z,2.85
2023-05-21T21:45:42.561Z,3.40
2023-05-21T21:48:11.687Z,3.53
2023-05-21T21:50:40.568Z,3.10
2023-05-21T21:53:12.751Z,2.85
2023-05-21T21:55:40.959Z,3.83
2023-05-21T21:58:09.264Z,3.08
2023-05-21T22:00:37.972Z,3.60
2023-05-21T22:03:06.417Z,3.00
2023-05-21T22:05:34.555Z,3.47
2023-05-21T22:08:04.143Z,3.38
2023-05-21T22:10:38.281Z,2.70
2023-05-21T22:13:06.824Z,2.88
2023-05-21T22:15:35.233Z,3.60
2023-05-21T22:18:03.566Z,3.33
2023-05-21T22:20:33.200Z,3.58
2023-05-21T22:23:01.812Z,3.08
2023-05-21T22:25:30.092Z,3.13
2023-05-21T22:27:59.703Z,2.92
2023-05-21T22:30:27.969Z,2.50
2023-05-21T22:32:56.883Z,2.50
2023-05-21T22:35:25.433Z,2.72
2023-05-21T22:37:53.709Z,2.42
2023-05-21T22:40:21.858Z,2.80
2023-05-21T22:42:50.088Z,1.85
2023-05-21T22:45:21.761Z,2.65
2023-05-21T22:50:20.256Z,2.45
2023-05-21T22:52:48.546Z,1.95
2023-05-21T22:55:17.261Z,2.42
2023-05-21T22:57:46.020Z,2.47
2023-05-21T23:00:14.703Z,2.13
2023-05-21T23:02:44.298Z,2.13
2023-05-21T23:05:12.564Z,1.75
2023-05-21T23:07:41.501Z,1.85
2023-05-21T23:10:10.514Z,1.95
2023-05-21T23:12:38.890Z,2.10
2023-05-21T23:15:07.948Z,2.03
2023-05-21T23:17:36.167Z,1.80
2023-05-21T23:20:07.374Z,1.85
2023-05-21T23:22:36.166Z,2.00
2023-05-21T23:25:05.088Z,2.58
2023-05-21T23:27:33.424Z,2.15
2023-05-21T23:30:01.758Z,2.20
2023-05-21T23:32:30.182Z,2.97
2023-05-21T23:34:58.436Z,1.90
2023-05-21T23:37:28.100Z,1.75
2023-05-21T23:39:56.427Z,1.77
2023-05-21T23:42:24.773Z,1.92
2023-05-21T23:44:53.036Z,1.90
2023-05-21T23:47:21.228Z,1.52
2023-05-21T23:49:49.441Z,1.77
2023-05-21T23:52:18.452Z,1.95
2023-05-21T23:54:48.262Z,2.60
2023-05-21T23:57:16.754Z,1.95
2023-05-21T23:59:45.031Z,1.70
